Αρχική σελίδα
METAR-TAF:

METAR-TAF

Αεροδρόμια :

Τζέντα, Σαουδική Αραβία

γεωγραφικό πλάτος: 21-42N, γεωγραφικό μήκος: 039-11E, υψόμετρο: 15 μ

Παρών καιρός

Η αναφορά έγινε 45 λεπτά πριν, στις 16:00 UTC
Άνεμος 14 kt από
Θερμοκρασία 22°C
Υγρασία 50%
Πίεση 1015 hPa
Ορατότητα 10 χλμ και άνω
Διάσπαρτα νέφη σε ύψος 4000 πόδια

METAR: OEJN 181600Z 31014KT 9999 SCT040 22/11 Q1015 NOSIG

Χρόνος: 19:45 (16:45 UTC)

Πρόγνωση Καιρού

Η αναφορά έγινε 5 ώρες και 45 λεπτά πριν, στις 11:00 UTC
Η πρόγνωση ισχύει από τις 18 στις 12 UTC έως τις 19 στις 18 UTC
Άνεμος 8 kt από Β/BΔ με ριπές μέχρι 18 kt
Ορατότητα 10 χλμ και άνω
Δεν υπάρχουν νέφη με βάση κάτω από τα 1500 μ. και δεν υπάρχουν νέφη σωρειτομελανίτες.
Καθιστάμενος
από 18 στις 18 UTC έως τις 18 στις 20 UTC
Άνεμος 12 kt από Β/BA
Ορατότητα: 7000 μ
Διάσπαρτα νέφη σε ύψος 4000 πόδια

TAF: OEJN 181100Z 1812/1918 33008G18KT CAVOK BECMG 1818/1820 03012KT 7000 SCT040

Μετεωρολογικές αναφορές και προγνώσεις για περισσότερα από 4000 αεροδρόμια (δελτία METAR και TAF).

Οι διαθέσιμοι σταθμοί απεικονίζονται στο χάρτη με κίτρινες και κόκκινες κουκκίδες.

Μετακινήστε το ποντίκι πάνω από τις κουκκίδες για να δείτε το όνομα του σταθμού.

Στη συνέχεια, κάντε κλικ για να δείτε τις μετεωρολογικές αναφορές και τις προγνώσεις καιρού.

Για να αλλάξετε το χάρτη: κάντε κλικ στα πράσινα κουμπιά με τον μαύρο σταυρό για να ζουμάρετε, στο πράσινο κουμπί με την παύλα για να αφαιρέσετε το ζουμ ή στα πράσινα βέλη για να αντιπαραβάλλετε χάρτες.


METAR-TAF: